sensor_id;sensor_type;location;lat;lon;timestamp;temperature;humidity
28193;DHT22;15473;50.840;3.396;2022-11-04T00:01:36;10.10;99.90
28193;DHT22;15473;50.840;3.396;2022-11-04T00:04:14;10.10;99.90
28193;DHT22;15473;50.840;3.396;2022-11-04T00:06:46;10.20;99.90
28193;DHT22;15473;50.840;3.396;2022-11-04T00:09:25;10.20;99.90
28193;DHT22;15473;50.840;3.396;2022-11-04T00:12:01;10.20;99.90
28193;DHT22;15473;50.840;3.396;2022-11-04T00:14:53;10.20;99.90
28193;DHT22;15473;50.840;3.396;2022-11-04T00:17:24;10.20;99.90
28193;DHT22;15473;50.840;3.396;2022-11-04T00:19:55;10.20;99.90
28193;DHT22;15473;50.840;3.396;2022-11-04T00:22:49;10.20;99.90
28193;DHT22;15473;50.840;3.396;2022-11-04T00:25:21;10.20;99.90
28193;DHT22;15473;50.840;3.396;2022-11-04T00:28:17;10.30;99.90
28193;DHT22;15473;50.840;3.396;2022-11-04T00:31:12;10.30;99.90
28193;DHT22;15473;50.840;3.396;2022-11-04T00:34:05;10.30;99.90
28193;DHT22;15473;50.840;3.396;2022-11-04T00:36:42;10.40;99.90
28193;DHT22;15473;50.840;3.396;2022-11-04T00:39:20;10.30;99.90
28193;DHT22;15473;50.840;3.396;2022-11-04T00:41:50;10.30;99.90
28193;DHT22;15473;50.840;3.396;2022-11-04T00:44:27;10.40;99.90
28193;DHT22;15473;50.840;3.396;2022-11-04T00:46:57;10.50;99.90
28193;DHT22;15473;50.840;3.396;2022-11-04T00:49:34;10.50;99.90
28193;DHT22;15473;50.840;3.396;2022-11-04T00:52:04;10.50;99.90
28193;DHT22;15473;50.840;3.396;2022-11-04T00:54:35;10.40;99.90
28193;DHT22;15473;50.840;3.396;2022-11-04T00:57:11;10.40;99.90
28193;DHT22;15473;50.840;3.396;2022-11-04T00:59:41;10.40;99.90
28193;DHT22;15473;50.840;3.396;2022-11-04T01:02:16;10.40;99.90
28193;DHT22;15473;50.840;3.396;2022-11-04T01:04:47;10.30;99.90
28193;DHT22;15473;50.840;3.396;2022-11-04T01:07:17;10.20;99.90
28193;DHT22;15473;50.840;3.396;2022-11-04T01:09:48;10.30;99.90
28193;DHT22;15473;50.840;3.396;2022-11-04T01:12:20;10.30;99.90
28193;DHT22;15473;50.840;3.396;2022-11-04T01:14:52;10.30;99.90
28193;DHT22;15473;50.840;3.396;2022-11-04T01:17:28;10.30;99.90
28193;DHT22;15473;50.840;3.396;2022-11-04T01:20:06;10.30;99.90
28193;DHT22;15473;50.840;3.396;2022-11-04T01:22:43;10.30;99.90
28193;DHT22;15473;50.840;3.396;2022-11-04T01:25:14;10.20;99.90
28193;DHT22;15473;50.840;3.396;2022-11-04T01:27:48;10.20;99.90
28193;DHT22;15473;50.840;3.396;2022-11-04T01:30:18;10.10;99.90
28193;DHT22;15473;50.840;3.396;2022-11-04T01:32:55;10.10;99.90
28193;DHT22;15473;50.840;3.396;2022-11-04T01:35:27;10.10;99.90
28193;DHT22;15473;50.840;3.396;2022-11-04T01:37:58;10.10;99.90
28193;DHT22;15473;50.840;3.396;2022-11-04T01:40:37;10.20;99.90
28193;DHT22;15473;50.840;3.396;2022-11-04T01:43:16;10.20;99.90
28193;DHT22;15473;50.840;3.396;2022-11-04T01:45:58;10.10;99.90
28193;DHT22;15473;50.840;3.396;2022-11-04T01:48:31;10.10;99.90
28193;DHT22;15473;50.840;3.396;2022-11-04T01:51:08;10.00;99.90
28193;DHT22;15473;50.840;3.396;2022-11-04T01:53:40;10.00;99.90
28193;DHT22;15473;50.840;3.396;2022-11-04T01:56:13;10.10;99.90
28193;DHT22;15473;50.840;3.396;2022-11-04T01:58:53;10.10;99.90
28193;DHT22;15473;50.840;3.396;2022-11-04T02:01:31;10.10;99.90
28193;DHT22;15473;50.840;3.396;2022-11-04T02:04:08;10.10;99.90
28193;DHT22;15473;50.840;3.396;2022-11-04T02:07:02;10.10;99.90
28193;DHT22;15473;50.840;3.396;2022-11-04T02:09:38;10.10;99.90
28193;DHT22;15473;50.840;3.396;2022-11-04T02:12:14;10.00;99.90
28193;DHT22;15473;50.840;3.396;2022-11-04T02:15:03;10.10;99.90
28193;DHT22;15473;50.840;3.396;2022-11-04T02:20:45;10.00;99.90
28193;DHT22;15473;50.840;3.396;2022-11-04T02:23:42;10.10;99.90
28193;DHT22;15473;50.840;3.396;2022-11-04T02:29:31;10.10;99.90
28193;DHT22;15473;50.840;3.396;2022-11-04T02:32:26;10.10;99.90
28193;DHT22;15473;50.840;3.396;2022-11-04T02:35:34;10.20;99.90
28193;DHT22;15473;50.840;3.396;2022-11-04T02:38:26;10.20;99.90
28193;DHT22;15473;50.840;3.396;2022-11-04T02:41:25;10.20;99.90
28193;DHT22;15473;50.840;3.396;2022-11-04T02:46:53;10.30;99.90
28193;DHT22;15473;50.840;3.396;2022-11-04T02:49:46;10.30;99.90
28193;DHT22;15473;50.840;3.396;2022-11-04T02:52:15;10.30;99.90
28193;DHT22;15473;50.840;3.396;2022-11-04T02:54:58;10.30;99.90
28193;DHT22;15473;50.840;3.396;2022-11-04T02:57:32;10.30;99.90
28193;DHT22;15473;50.840;3.396;2022-11-04T03:00:11;10.30;99.90
28193;DHT22;15473;50.840;3.396;2022-11-04T03:05:20;10.30;99.90
28193;DHT22;15473;50.840;3.396;2022-11-04T03:08:00;10.30;99.90
28193;DHT22;15473;50.840;3.396;2022-11-04T03:10:36;10.30;99.90
28193;DHT22;15473;50.840;3.396;2022-11-04T03:13:31;10.20;99.90
28193;DHT22;15473;50.840;3.396;2022-11-04T03:16:01;10.20;99.90
28193;DHT22;15473;50.840;3.396;2022-11-04T03:18:58;10.30;99.90
28193;DHT22;15473;50.840;3.396;2022-11-04T03:21:30;10.30;99.90
28193;DHT22;15473;50.840;3.396;2022-11-04T03:24:07;10.40;99.90
28193;DHT22;15473;50.840;3.396;2022-11-04T03:26:51;10.40;99.90
28193;DHT22;15473;50.840;3.396;2022-11-04T03:32:14;10.50;99.90
28193;DHT22;15473;50.840;3.396;2022-11-04T03:34:44;10.50;99.90
28193;DHT22;15473;50.840;3.396;2022-11-04T03:37:18;10.60;99.90
28193;DHT22;15473;50.840;3.396;2022-11-04T03:39:51;10.60;99.90
28193;DHT22;15473;50.840;3.396;2022-11-04T03:42:22;10.60;99.90
28193;DHT22;15473;50.840;3.396;2022-11-04T03:44:55;10.60;99.90
28193;DHT22;15473;50.840;3.396;2022-11-04T03:47:27;10.60;99.90
28193;DHT22;15473;50.840;3.396;2022-11-04T03:50:12;10.60;99.90
28193;DHT22;15473;50.840;3.396;2022-11-04T03:52:41;10.50;99.90
28193;DHT22;15473;50.840;3.396;2022-11-04T03:55:12;10.60;99.90
28193;DHT22;15473;50.840;3.396;2022-11-04T04:00:20;10.60;99.90
28193;DHT22;15473;50.840;3.396;2022-11-04T04:03:05;10.60;99.90
28193;DHT22;15473;50.840;3.396;2022-11-04T04:11:02;10.60;99.90
28193;DHT22;15473;50.840;3.396;2022-11-04T04:13:52;10.70;99.90
28193;DHT22;15473;50.840;3.396;2022-11-04T04:16:33;10.70;99.90
28193;DHT22;15473;50.840;3.396;2022-11-04T04:19:10;10.70;99.90
28193;DHT22;15473;50.840;3.396;2022-11-04T04:22:00;10.70;99.90
28193;DHT22;15473;50.840;3.396;2022-11-04T04:24:32;10.70;99.90
28193;DHT22;15473;50.840;3.396;2022-11-04T04:27:28;10.70;99.90
28193;DHT22;15473;50.840;3.396;2022-11-04T04:30:13;10.80;99.90
28193;DHT22;15473;50.840;3.396;2022-11-04T04:32:48;10.70;99.90
28193;DHT22;15473;50.840;3.396;2022-11-04T04:35:27;10.70;99.90
28193;DHT22;15473;50.840;3.396;2022-11-04T04:38:24;10.70;99.90
28193;DHT22;15473;50.840;3.396;2022-11-04T04:41:29;10.70;99.90
28193;DHT22;15473;50.840;3.396;2022-11-04T04:44:27;10.70;99.90
28193;DHT22;15473;50.840;3.396;2022-11-04T04:47:17;10.70;99.90
28193;DHT22;15473;50.840;3.396;2022-11-04T04:49:56;10.60;99.90
28193;DHT22;15473;50.840;3.396;2022-11-04T04:52:36;10.70;99.90
28193;DHT22;15473;50.840;3.396;2022-11-04T04:55:06;10.70;99.90
28193;DHT22;15473;50.840;3.396;2022-11-04T04:57:39;10.70;99.90
28193;DHT22;15473;50.840;3.396;2022-11-04T05:00:17;10.70;99.90
28193;DHT22;15473;50.840;3.396;2022-11-04T05:02:54;10.70;99.90
28193;DHT22;15473;50.840;3.396;2022-11-04T05:05:31;10.70;99.90
28193;DHT22;15473;50.840;3.396;2022-11-04T05:08:07;10.70;99.90
28193;DHT22;15473;50.840;3.396;2022-11-04T05:10:44;10.70;99.90
28193;DHT22;15473;50.840;3.396;2022-11-04T05:13:20;10.70;99.90
28193;DHT22;15473;50.840;3.396;2022-11-04T05:16:03;10.70;99.90
28193;DHT22;15473;50.840;3.396;2022-11-04T05:18:40;10.70;99.90
28193;DHT22;15473;50.840;3.396;2022-11-04T05:21:12;10.70;99.90
28193;DHT22;15473;50.840;3.396;2022-11-04T05:23:48;10.80;99.90
28193;DHT22;15473;50.840;3.396;2022-11-04T05:26:20;10.70;99.90
28193;DHT22;15473;50.840;3.396;2022-11-04T05:28:54;10.70;99.90
28193;DHT22;15473;50.840;3.396;2022-11-04T05:31:24;10.80;99.90
28193;DHT22;15473;50.840;3.396;2022-11-04T05:34:02;10.80;99.90
28193;DHT22;15473;50.840;3.396;2022-11-04T05:36:40;10.90;99.90
28193;DHT22;15473;50.840;3.396;2022-11-04T05:39:12;10.90;99.90
28193;DHT22;15473;50.840;3.396;2022-11-04T05:41:43;10.90;99.90
28193;DHT22;15473;50.840;3.396;2022-11-04T05:44:21;10.80;99.90
28193;DHT22;15473;50.840;3.396;2022-11-04T05:46:51;10.80;99.90
28193;DHT22;15473;50.840;3.396;2022-11-04T05:49:21;10.80;99.90
28193;DHT22;15473;50.840;3.396;2022-11-04T05:51:51;10.90;99.90
28193;DHT22;15473;50.840;3.396;2022-11-04T05:54:27;10.90;99.90
28193;DHT22;15473;50.840;3.396;2022-11-04T05:57:04;11.00;99.90
28193;DHT22;15473;50.840;3.396;2022-11-04T05:59:34;11.00;99.90
28193;DHT22;15473;50.840;3.396;2022-11-04T06:02:04;11.00;99.90
28193;DHT22;15473;50.840;3.396;2022-11-04T06:04:42;11.00;99.90
28193;DHT22;15473;50.840;3.396;2022-11-04T06:07:12;11.00;99.90
28193;DHT22;15473;50.840;3.396;2022-11-04T06:09:42;11.00;99.90
28193;DHT22;15473;50.840;3.396;2022-11-04T06:12:13;10.90;99.90
28193;DHT22;15473;50.840;3.396;2022-11-04T06:14:45;10.90;99.90
28193;DHT22;15473;50.840;3.396;2022-11-04T06:17:18;10.90;99.90
28193;DHT22;15473;50.840;3.396;2022-11-04T06:19:55;11.00;99.90
28193;DHT22;15473;50.840;3.396;2022-11-04T06:22:31;11.00;99.90
28193;DHT22;15473;50.840;3.396;2022-11-04T06:25:09;11.10;99.90
28193;DHT22;15473;50.840;3.396;2022-11-04T06:27:46;11.00;99.90
28193;DHT22;15473;50.840;3.396;2022-11-04T06:30:20;11.00;99.90
28193;DHT22;15473;50.840;3.396;2022-11-04T06:32:58;11.00;99.90
28193;DHT22;15473;50.840;3.396;2022-11-04T06:35:32;11.00;99.90
28193;DHT22;15473;50.840;3.396;2022-11-04T06:38:02;11.00;99.90
28193;DHT22;15473;50.840;3.396;2022-11-04T06:40:32;11.00;99.90
28193;DHT22;15473;50.840;3.396;2022-11-04T06:43:08;11.00;99.90
28193;DHT22;15473;50.840;3.396;2022-11-04T06:45:55;11.00;99.90
28193;DHT22;15473;50.840;3.396;2022-11-04T06:48:26;11.00;99.90
28193;DHT22;15473;50.840;3.396;2022-11-04T06:50:59;11.00;99.90
28193;DHT22;15473;50.840;3.396;2022-11-04T06:53:29;11.00;99.90
28193;DHT22;15473;50.840;3.396;2022-11-04T06:56:07;11.00;99.90
28193;DHT22;15473;50.840;3.396;2022-11-04T06:58:49;11.00;99.90
28193;DHT22;15473;50.840;3.396;2022-11-04T07:01:27;11.00;99.90
28193;DHT22;15473;50.840;3.396;2022-11-04T07:03:58;11.00;99.90
28193;DHT22;15473;50.840;3.396;2022-11-04T07:06:35;11.10;99.90
28193;DHT22;15473;50.840;3.396;2022-11-04T07:09:14;11.00;99.90
28193;DHT22;15473;50.840;3.396;2022-11-04T07:11:44;11.00;99.90
28193;DHT22;15473;50.840;3.396;2022-11-04T07:14:21;11.00;99.90
28193;DHT22;15473;50.840;3.396;2022-11-04T07:16:51;11.10;99.90
28193;DHT22;15473;50.840;3.396;2022-11-04T07:19:21;11.10;99.90
28193;DHT22;15473;50.840;3.396;2022-11-04T07:21:51;11.20;99.90
28193;DHT22;15473;50.840;3.396;2022-11-04T07:24:21;11.20;99.90
28193;DHT22;15473;50.840;3.396;2022-11-04T07:26:58;11.30;99.90
28193;DHT22;15473;50.840;3.396;2022-11-04T07:29:32;11.30;99.90
28193;DHT22;15473;50.840;3.396;2022-11-04T07:32:06;11.40;99.90
28193;DHT22;15473;50.840;3.396;2022-11-04T07:34:43;11.40;99.90
28193;DHT22;15473;50.840;3.396;2022-11-04T07:37:20;11.40;99.90
28193;DHT22;15473;50.840;3.396;2022-11-04T07:39:56;11.40;99.90
28193;DHT22;15473;50.840;3.396;2022-11-04T07:42:33;11.60;99.90
28193;DHT22;15473;50.840;3.396;2022-11-04T07:45:09;11.60;99.90
28193;DHT22;15473;50.840;3.396;2022-11-04T07:47:40;11.50;99.90
28193;DHT22;15473;50.840;3.396;2022-11-04T07:50:10;11.60;99.90
28193;DHT22;15473;50.840;3.396;2022-11-04T07:52:53;11.60;99.90
28193;DHT22;15473;50.840;3.396;2022-11-04T07:55:26;11.60;99.90
28193;DHT22;15473;50.840;3.396;2022-11-04T07:57:58;11.60;99.90
28193;DHT22;15473;50.840;3.396;2022-11-04T08:00:28;11.60;99.90
28193;DHT22;15473;50.840;3.396;2022-11-04T08:03:04;11.60;99.90
28193;DHT22;15473;50.840;3.396;2022-11-04T08:05:35;11.60;99.90
28193;DHT22;15473;50.840;3.396;2022-11-04T08:08:09;11.60;99.90
28193;DHT22;15473;50.840;3.396;2022-11-04T08:10:39;11.60;99.90
28193;DHT22;15473;50.840;3.396;2022-11-04T08:13:09;11.60;99.90
28193;DHT22;15473;50.840;3.396;2022-11-04T08:15:46;11.60;99.90
28193;DHT22;15473;50.840;3.396;2022-11-04T08:18:17;11.60;99.90
28193;DHT22;15473;50.840;3.396;2022-11-04T08:20:52;11.60;99.90
28193;DHT22;15473;50.840;3.396;2022-11-04T08:23:22;11.60;99.90
28193;DHT22;15473;50.840;3.396;2022-11-04T08:25:54;11.50;99.90
28193;DHT22;15473;50.840;3.396;2022-11-04T08:28:31;11.60;99.90
28193;DHT22;15473;50.840;3.396;2022-11-04T08:31:10;11.60;99.90
28193;DHT22;15473;50.840;3.396;2022-11-04T08:33:42;11.60;99.90
28193;DHT22;15473;50.840;3.396;2022-11-04T08:38:53;11.70;99.90
28193;DHT22;15473;50.840;3.396;2022-11-04T08:41:26;11.70;99.90
28193;DHT22;15473;50.840;3.396;2022-11-04T08:43:59;11.80;99.90
28193;DHT22;15473;50.840;3.396;2022-11-04T08:46:36;11.90;99.90
28193;DHT22;15473;50.840;3.396;2022-11-04T08:49:07;11.90;99.90
28193;DHT22;15473;50.840;3.396;2022-11-04T08:51:40;11.90;99.90
28193;DHT22;15473;50.840;3.396;2022-11-04T08:54:10;12.00;99.90
28193;DHT22;15473;50.840;3.396;2022-11-04T08:56:44;12.00;99.90
28193;DHT22;15473;50.840;3.396;2022-11-04T08:59:14;12.10;99.90
28193;DHT22;15473;50.840;3.396;2022-11-04T09:01:51;12.10;99.90
28193;DHT22;15473;50.840;3.396;2022-11-04T09:04:21;12.20;99.90
28193;DHT22;15473;50.840;3.396;2022-11-04T09:06:51;12.20;99.90
28193;DHT22;15473;50.840;3.396;2022-11-04T09:09:29;12.30;99.90
28193;DHT22;15473;50.840;3.396;2022-11-04T09:12:08;12.30;99.90
28193;DHT22;15473;50.840;3.396;2022-11-04T09:14:42;12.30;99.90
28193;DHT22;15473;50.840;3.396;2022-11-04T09:17:12;12.40;99.90
28193;DHT22;15473;50.840;3.396;2022-11-04T09:19:49;12.50;99.90
28193;DHT22;15473;50.840;3.396;2022-11-04T09:22:19;12.50;99.90
28193;DHT22;15473;50.840;3.396;2022-11-04T09:24:56;12.60;99.90
28193;DHT22;15473;50.840;3.396;2022-11-04T09:27:32;12.70;99.90
28193;DHT22;15473;50.840;3.396;2022-11-04T09:30:04;12.80;99.90
28193;DHT22;15473;50.840;3.396;2022-11-04T09:32:34;12.90;99.90
28193;DHT22;15473;50.840;3.396;2022-11-04T09:35:11;13.10;99.90
28193;DHT22;15473;50.840;3.396;2022-11-04T09:37:43;13.00;99.90
28193;DHT22;15473;50.840;3.396;2022-11-04T09:40:19;13.10;99.90
28193;DHT22;15473;50.840;3.396;2022-11-04T09:45:40;13.00;99.90
28193;DHT22;15473;50.840;3.396;2022-11-04T09:48:59;13.10;99.90
28193;DHT22;15473;50.840;3.396;2022-11-04T09:50:51;13.10;99.90
28193;DHT22;15473;50.840;3.396;2022-11-04T09:53:33;13.30;99.90
28193;DHT22;15473;50.840;3.396;2022-11-04T09:59:04;13.20;99.90
28193;DHT22;15473;50.840;3.396;2022-11-04T10:04:55;13.20;99.90
28193;DHT22;15473;50.840;3.396;2022-11-04T10:10:08;13.20;99.90
28193;DHT22;15473;50.840;3.396;2022-11-04T10:12:51;13.20;99.90
28193;DHT22;15473;50.840;3.396;2022-11-04T10:20:59;13.20;99.90
28193;DHT22;15473;50.840;3.396;2022-11-04T10:23:45;13.20;99.90
28193;DHT22;15473;50.840;3.396;2022-11-04T10:26:23;13.10;99.90
28193;DHT22;15473;50.840;3.396;2022-11-04T10:29:03;13.10;99.90
28193;DHT22;15473;50.840;3.396;2022-11-04T10:31:29;13.10;99.90
28193;DHT22;15473;50.840;3.396;2022-11-04T10:34:22;13.10;99.90
28193;DHT22;15473;50.840;3.396;2022-11-04T10:36:48;13.20;99.90
28193;DHT22;15473;50.840;3.396;2022-11-04T10:39:29;13.20;99.90
28193;DHT22;15473;50.840;3.396;2022-11-04T10:42:05;13.20;99.90
28193;DHT22;15473;50.840;3.396;2022-11-04T10:44:36;13.20;99.90
28193;DHT22;15473;50.840;3.396;2022-11-04T10:52:47;13.10;99.90
28193;DHT22;15473;50.840;3.396;2022-11-04T10:55:32;13.00;99.90
28193;DHT22;15473;50.840;3.396;2022-11-04T10:58:00;13.00;99.90
28193;DHT22;15473;50.840;3.396;2022-11-04T11:00:36;12.90;99.90
28193;DHT22;15473;50.840;3.396;2022-11-04T11:03:28;12.80;99.90
28193;DHT22;15473;50.840;3.396;2022-11-04T11:06:20;12.80;99.90
28193;DHT22;15473;50.840;3.396;2022-11-04T11:08:56;12.80;99.90
28193;DHT22;15473;50.840;3.396;2022-11-04T11:11:38;12.80;99.90
28193;DHT22;15473;50.840;3.396;2022-11-04T11:14:16;12.70;99.90
28193;DHT22;15473;50.840;3.396;2022-11-04T11:16:54;12.70;99.90
28193;DHT22;15473;50.840;3.396;2022-11-04T11:19:25;12.60;99.90
28193;DHT22;15473;50.840;3.396;2022-11-04T11:21:56;12.70;99.90
28193;DHT22;15473;50.840;3.396;2022-11-04T11:24:27;12.80;99.90
28193;DHT22;15473;50.840;3.396;2022-11-04T11:27:08;12.90;99.90
28193;DHT22;15473;50.840;3.396;2022-11-04T11:29:41;13.00;99.90
28193;DHT22;15473;50.840;3.396;2022-11-04T11:32:23;13.00;99.90
28193;DHT22;15473;50.840;3.396;2022-11-04T11:34:50;13.00;99.90
28193;DHT22;15473;50.840;3.396;2022-11-04T11:37:28;13.20;99.90
28193;DHT22;15473;50.840;3.396;2022-11-04T11:40:21;13.30;99.90
28193;DHT22;15473;50.840;3.396;2022-11-04T11:42:40;13.40;99.90
28193;DHT22;15473;50.840;3.396;2022-11-04T11:45:17;13.40;99.90
28193;DHT22;15473;50.840;3.396;2022-11-04T11:47:56;13.40;99.90
28193;DHT22;15473;50.840;3.396;2022-11-04T11:50:28;13.40;99.90
28193;DHT22;15473;50.840;3.396;2022-11-04T11:53:17;13.50;99.90
28193;DHT22;15473;50.840;3.396;2022-11-04T11:56:28;13.50;99.90
28193;DHT22;15473;50.840;3.396;2022-11-04T12:03:18;13.50;99.90
28193;DHT22;15473;50.840;3.396;2022-11-04T12:04:57;13.40;99.90
28193;DHT22;15473;50.840;3.396;2022-11-04T12:10:41;13.30;99.90
28193;DHT22;15473;50.840;3.396;2022-11-04T12:13:25;13.30;99.90
28193;DHT22;15473;50.840;3.396;2022-11-04T12:16:15;13.40;99.90
28193;DHT22;15473;50.840;3.396;2022-11-04T12:19:27;13.40;99.90
28193;DHT22;15473;50.840;3.396;2022-11-04T12:22:09;13.50;99.90
28193;DHT22;15473;50.840;3.396;2022-11-04T12:27:36;13.70;99.90
28193;DHT22;15473;50.840;3.396;2022-11-04T12:30:13;13.70;99.90
28193;DHT22;15473;50.840;3.396;2022-11-04T12:32:59;13.70;99.90
28193;DHT22;15473;50.840;3.396;2022-11-04T12:35:50;13.80;99.90
28193;DHT22;15473;50.840;3.396;2022-11-04T12:44:32;13.80;99.90
28193;DHT22;15473;50.840;3.396;2022-11-04T12:47:36;13.90;99.90
28193;DHT22;15473;50.840;3.396;2022-11-04T12:53:01;13.80;99.90
28193;DHT22;15473;50.840;3.396;2022-11-04T12:55:51;13.60;99.90
28193;DHT22;15473;50.840;3.396;2022-11-04T12:58:44;13.50;99.90
28193;DHT22;15473;50.840;3.396;2022-11-04T13:01:44;13.30;99.90
28193;DHT22;15473;50.840;3.396;2022-11-04T13:04:17;13.20;99.90
28193;DHT22;15473;50.840;3.396;2022-11-04T13:07:06;13.20;99.90
28193;DHT22;15473;50.840;3.396;2022-11-04T13:09:42;13.20;99.90
28193;DHT22;15473;50.840;3.396;2022-11-04T13:12:15;13.30;99.90
28193;DHT22;15473;50.840;3.396;2022-11-04T13:14:49;13.50;99.90
28193;DHT22;15473;50.840;3.396;2022-11-04T13:17:36;13.60;99.90
28193;DHT22;15473;50.840;3.396;2022-11-04T13:20:28;13.60;99.90
28193;DHT22;15473;50.840;3.396;2022-11-04T13:23:03;13.80;99.90
28193;DHT22;15473;50.840;3.396;2022-11-04T13:25:44;13.80;99.90
28193;DHT22;15473;50.840;3.396;2022-11-04T13:28:18;13.80;99.90
28193;DHT22;15473;50.840;3.396;2022-11-04T13:31:06;13.90;99.90
28193;DHT22;15473;50.840;3.396;2022-11-04T13:33:57;13.90;99.90
28193;DHT22;15473;50.840;3.396;2022-11-04T13:44:46;13.90;99.90
28193;DHT22;15473;50.840;3.396;2022-11-04T13:47:34;14.00;99.90
28193;DHT22;15473;50.840;3.396;2022-11-04T13:50:05;13.90;99.90
28193;DHT22;15473;50.840;3.396;2022-11-04T13:52:39;13.90;99.90
28193;DHT22;15473;50.840;3.396;2022-11-04T13:55:16;13.90;99.90
28193;DHT22;15473;50.840;3.396;2022-11-04T13:58:04;13.90;99.90
28193;DHT22;15473;50.840;3.396;2022-11-04T14:00:35;13.80;99.90
28193;DHT22;15473;50.840;3.396;2022-11-04T14:06:01;13.70;99.90
28193;DHT22;15473;50.840;3.396;2022-11-04T14:08:33;13.80;99.90
28193;DHT22;15473;50.840;3.396;2022-11-04T14:11:10;13.70;99.90
28193;DHT22;15473;50.840;3.396;2022-11-04T14:13:59;13.70;99.90
28193;DHT22;15473;50.840;3.396;2022-11-04T14:22:03;13.80;99.90
28193;DHT22;15473;50.840;3.396;2022-11-04T14:24:12;13.70;99.90
28193;DHT22;15473;50.840;3.396;2022-11-04T14:26:46;13.70;99.90
28193;DHT22;15473;50.840;3.396;2022-11-04T14:29:24;13.70;99.90
28193;DHT22;15473;50.840;3.396;2022-11-04T14:32:01;13.70;99.90
28193;DHT22;15473;50.840;3.396;2022-11-04T14:34:33;13.80;99.90
28193;DHT22;15473;50.840;3.396;2022-11-04T14:37:20;13.80;99.90
28193;DHT22;15473;50.840;3.396;2022-11-04T14:39:57;13.80;99.90
28193;DHT22;15473;50.840;3.396;2022-11-04T14:42:48;13.80;99.90
28193;DHT22;15473;50.840;3.396;2022-11-04T14:45:19;13.90;99.90
28193;DHT22;15473;50.840;3.396;2022-11-04T14:48:00;13.80;99.90
28193;DHT22;15473;50.840;3.396;2022-11-04T14:50:32;13.80;99.90
28193;DHT22;15473;50.840;3.396;2022-11-04T14:53:03;13.60;99.90
28193;DHT22;15473;50.840;3.396;2022-11-04T14:55:46;13.60;99.90
28193;DHT22;15473;50.840;3.396;2022-11-04T14:58:24;13.50;99.90
28193;DHT22;15473;50.840;3.396;2022-11-04T15:00:58;13.50;99.90
28193;DHT22;15473;50.840;3.396;2022-11-04T15:03:37;13.50;99.90
28193;DHT22;15473;50.840;3.396;2022-11-04T15:06:09;13.50;99.90
28193;DHT22;15473;50.840;3.396;2022-11-04T15:08:46;13.40;99.90
28193;DHT22;15473;50.840;3.396;2022-11-04T15:11:25;13.20;99.90
28193;DHT22;15473;50.840;3.396;2022-11-04T15:14:24;13.00;99.90
28193;DHT22;15473;50.840;3.396;2022-11-04T15:16:54;12.90;99.90
28193;DHT22;15473;50.840;3.396;2022-11-04T15:19:33;12.80;99.90
28193;DHT22;15473;50.840;3.396;2022-11-04T15:22:12;12.80;99.90
28193;DHT22;15473;50.840;3.396;2022-11-04T15:24:49;12.70;99.90
28193;DHT22;15473;50.840;3.396;2022-11-04T15:27:24;12.70;99.90
28193;DHT22;15473;50.840;3.396;2022-11-04T15:30:00;12.60;99.90
28193;DHT22;15473;50.840;3.396;2022-11-04T15:32:31;12.60;99.90
28193;DHT22;15473;50.840;3.396;2022-11-04T15:35:10;12.40;99.90
28193;DHT22;15473;50.840;3.396;2022-11-04T15:37:47;12.40;99.90
28193;DHT22;15473;50.840;3.396;2022-11-04T15:40:18;12.30;99.90
28193;DHT22;15473;50.840;3.396;2022-11-04T15:42:51;12.30;99.90
28193;DHT22;15473;50.840;3.396;2022-11-04T15:45:36;12.20;99.90
28193;DHT22;15473;50.840;3.396;2022-11-04T15:48:34;12.00;99.90
28193;DHT22;15473;50.840;3.396;2022-11-04T15:51:24;11.90;99.90
28193;DHT22;15473;50.840;3.396;2022-11-04T15:54:00;11.90;99.90
28193;DHT22;15473;50.840;3.396;2022-11-04T15:56:49;11.70;99.90
28193;DHT22;15473;50.840;3.396;2022-11-04T15:59:31;11.70;99.90
28193;DHT22;15473;50.840;3.396;2022-11-04T16:02:04;11.60;99.90
28193;DHT22;15473;50.840;3.396;2022-11-04T16:04:41;11.60;99.90
28193;DHT22;15473;50.840;3.396;2022-11-04T16:09:53;11.60;99.90
28193;DHT22;15473;50.840;3.396;2022-11-04T16:12:34;11.50;99.90
28193;DHT22;15473;50.840;3.396;2022-11-04T16:18:01;11.40;99.90
28193;DHT22;15473;50.840;3.396;2022-11-04T16:20:37;11.40;99.90
28193;DHT22;15473;50.840;3.396;2022-11-04T16:23:12;11.40;99.90
28193;DHT22;15473;50.840;3.396;2022-11-04T16:26:07;11.30;99.90
28193;DHT22;15473;50.840;3.396;2022-11-04T16:28:27;11.30;99.90
28193;DHT22;15473;50.840;3.396;2022-11-04T16:31:57;11.30;99.90
28193;DHT22;15473;50.840;3.396;2022-11-04T16:33:38;11.20;99.90
28193;DHT22;15473;50.840;3.396;2022-11-04T16:36:12;11.20;99.90
28193;DHT22;15473;50.840;3.396;2022-11-04T16:39:01;11.10;99.90
28193;DHT22;15473;50.840;3.396;2022-11-04T16:41:35;11.10;99.90
28193;DHT22;15473;50.840;3.396;2022-11-04T16:44:14;11.00;99.90
28193;DHT22;15473;50.840;3.396;2022-11-04T16:46:52;11.00;99.90
28193;DHT22;15473;50.840;3.396;2022-11-04T16:49:31;10.90;99.90
28193;DHT22;15473;50.840;3.396;2022-11-04T16:52:01;10.90;99.90
28193;DHT22;15473;50.840;3.396;2022-11-04T16:54:31;11.00;99.90
28193;DHT22;15473;50.840;3.396;2022-11-04T16:57:03;10.90;99.90
28193;DHT22;15473;50.840;3.396;2022-11-04T16:59:41;10.90;99.90
28193;DHT22;15473;50.840;3.396;2022-11-04T17:02:29;11.00;99.90
28193;DHT22;15473;50.840;3.396;2022-11-04T17:05:00;10.90;99.90
28193;DHT22;15473;50.840;3.396;2022-11-04T17:07:31;10.90;99.90
28193;DHT22;15473;50.840;3.396;2022-11-04T17:10:01;10.90;99.90
28193;DHT22;15473;50.840;3.396;2022-11-04T17:12:32;10.80;99.90
28193;DHT22;15473;50.840;3.396;2022-11-04T17:15:03;10.90;99.90
28193;DHT22;15473;50.840;3.396;2022-11-04T17:17:33;10.80;99.90
28193;DHT22;15473;50.840;3.396;2022-11-04T17:20:05;10.80;99.90
28193;DHT22;15473;50.840;3.396;2022-11-04T17:22:37;10.80;99.90
28193;DHT22;15473;50.840;3.396;2022-11-04T17:25:16;10.80;99.90
28193;DHT22;15473;50.840;3.396;2022-11-04T17:27:46;10.80;99.90
28193;DHT22;15473;50.840;3.396;2022-11-04T17:30:17;10.70;99.90
28193;DHT22;15473;50.840;3.396;2022-11-04T17:32:48;10.70;99.90
28193;DHT22;15473;50.840;3.396;2022-11-04T17:35:18;10.70;99.90
28193;DHT22;15473;50.840;3.396;2022-11-04T17:37:54;10.70;99.90
28193;DHT22;15473;50.840;3.396;2022-11-04T17:40:24;10.60;99.90
28193;DHT22;15473;50.840;3.396;2022-11-04T17:42:54;10.60;99.90
28193;DHT22;15473;50.840;3.396;2022-11-04T17:45:43;10.60;99.90
28193;DHT22;15473;50.840;3.396;2022-11-04T17:48:13;10.60;99.90
28193;DHT22;15473;50.840;3.396;2022-11-04T17:50:45;10.60;99.90
28193;DHT22;15473;50.840;3.396;2022-11-04T17:53:15;10.60;99.90
28193;DHT22;15473;50.840;3.396;2022-11-04T17:55:45;10.60;99.90
28193;DHT22;15473;50.840;3.396;2022-11-04T17:58:16;10.50;99.90
28193;DHT22;15473;50.840;3.396;2022-11-04T18:00:48;10.50;99.90